Time;durP1;ratioP1;P1;durP2;ratioP2;P2;SDS_P1;SDS_P2;PMS_P1;PMS_P2;Temp;Humidity;BMP_temperature;BMP_pressure;BME280_temperature;BME280_humidity;BME280_pressure;Samples;Min_cycle;Max_cycle;Signal;HPM_P1;HPM_P2
2022/07/03 00:01:57;;;;;;;3.53;2.10;;;19.80;99.90;;;;;;5090025;28;20078;-71
2022/07/03 00:04:22;;;;;;;4.15;1.65;;;19.80;99.90;;;;;;5092711;28;20476;-71
2022/07/03 00:06:49;;;;;;;3.58;2.30;;;19.80;99.90;;;;;;5079516;28;20036;-71
2022/07/03 00:09:14;;;;;;;7.47;3.10;;;19.80;99.90;;;;;;5074354;28;20067;-71
2022/07/03 00:11:40;;;;;;;3.70;2.40;;;19.80;99.90;;;;;;5072462;28;20400;-71
2022/07/03 00:14:06;;;;;;;4.25;1.80;;;19.80;99.90;;;;;;5072627;28;20027;-71
2022/07/03 00:16:32;;;;;;;3.92;1.70;;;19.70;99.90;;;;;;5077859;28;20103;-70
2022/07/03 00:18:58;;;;;;;3.85;2.00;;;19.70;99.90;;;;;;5091999;28;20113;-71
2022/07/03 00:21:46;;;;;;;4.95;1.85;;;19.60;99.90;;;;;;5092184;28;20028;-71
2022/07/03 00:24:40;;;;;;;3.42;1.70;;;19.50;99.90;;;;;;5092505;28;20047;-71
2022/07/03 00:27:08;;;;;;;7.07;2.70;;;19.50;99.90;;;;;;5091408;28;20040;-71
2022/07/03 00:29:38;;;;;;;5.43;2.13;;;19.60;99.90;;;;;;5092855;28;20354;-70
2022/07/03 00:32:06;;;;;;;5.82;2.75;;;19.50;99.90;;;;;;5092857;28;20035;-70
2022/07/03 00:34:32;;;;;;;3.60;2.70;;;19.50;99.90;;;;;;5093077;28;20376;-71
2022/07/03 00:37:00;;;;;;;5.10;2.45;;;19.50;99.90;;;;;;5092492;28;20032;-71
2022/07/03 00:39:26;;;;;;;10.20;2.47;;;19.50;99.90;;;;;;5092924;28;20016;-71
2022/07/03 00:42:03;;;;;;;4.97;2.55;;;19.50;99.90;;;;;;5081992;28;20037;-71
2022/07/03 00:44:30;;;;;;;2.53;2.33;;;19.50;99.90;;;;;;5075635;28;20012;-71
2022/07/03 00:46:58;;;;;;;5.38;2.42;;;19.40;99.90;;;;;;5087271;28;20056;-72
2022/07/03 00:49:24;;;;;;;3.40;2.30;;;19.40;99.90;;;;;;5072380;28;20128;-71
2022/07/03 00:51:53;;;;;;;3.10;2.47;;;19.30;99.90;;;;;;5072386;28;20501;-71
2022/07/03 00:54:21;;;;;;;2.67;2.42;;;19.20;99.90;;;;;;5086930;28;20054;-71
2022/07/03 00:56:51;;;;;;;3.75;3.38;;;19.10;99.90;;;;;;5092179;28;20503;-70
2022/07/03 00:59:18;;;;;;;9.57;4.55;;;19.10;99.90;;;;;;5092916;28;20020;-71
2022/07/03 01:01:45;;;;;;;6.10;2.65;;;19.00;99.90;;;;;;5094993;28;20025;-71
2022/07/03 01:04:35;;;;;;;3.95;3.65;;;19.00;99.90;;;;;;5095998;28;20031;-71
2022/07/03 01:07:05;;;;;;;5.38;4.55;;;19.00;99.90;;;;;;5095027;28;20465;-71
2022/07/03 01:10:09;;;;;;;5.43;4.03;;;19.00;99.90;;;;;;5096252;28;20036;-71
2022/07/03 01:12:53;;;;;;;5.80;3.60;;;18.90;99.90;;;;;;5092367;28;20046;-71
2022/07/03 01:15:29;;;;;;;6.65;4.38;;;19.00;99.90;;;;;;5096168;28;20028;-71
2022/07/03 01:18:34;;;;;;;5.22;4.30;;;19.00;99.90;;;;;;5095437;28;20065;-71
2022/07/03 01:21:16;;;;;;;6.85;4.38;;;19.10;99.90;;;;;;5055193;28;20504;-71
2022/07/03 01:24:06;;;;;;;5.05;4.43;;;19.10;99.90;;;;;;5095629;28;20030;-71
2022/07/03 01:26:37;;;;;;;5.03;4.63;;;19.00;99.90;;;;;;5095694;28;20496;-71
2022/07/03 01:29:08;;;;;;;7.18;4.88;;;19.00;99.90;;;;;;5095851;28;20035;-71
2022/07/03 01:31:37;;;;;;;5.97;5.00;;;19.10;99.90;;;;;;5095877;28;20034;-71
2022/07/03 01:34:08;;;;;;;6.65;4.45;;;19.10;99.90;;;;;;5095826;28;20461;-71
2022/07/03 01:36:38;;;;;;;6.05;4.70;;;19.10;99.90;;;;;;5095851;28;20012;-71
2022/07/03 01:39:05;;;;;;;9.77;4.30;;;19.10;99.90;;;;;;5095173;28;20023;-71
2022/07/03 01:41:31;;;;;;;5.57;4.70;;;19.10;99.90;;;;;;5095277;28;20042;-71
2022/07/03 01:43:59;;;;;;;7.13;5.50;;;19.10;99.90;;;;;;5095430;28;20426;-72
2022/07/03 01:46:30;;;;;;;8.45;5.40;;;19.10;99.90;;;;;;5094191;28;20105;-72
2022/07/03 01:48:57;;;;;;;7.05;5.60;;;19.10;99.90;;;;;;5094979;28;20030;-71
2022/07/03 01:51:24;;;;;;;5.95;5.07;;;19.00;99.90;;;;;;5095472;28;20087;-71
2022/07/03 01:53:52;;;;;;;7.25;6.47;;;19.00;99.90;;;;;;5095209;28;20061;-71
2022/07/03 01:56:20;;;;;;;6.45;5.57;;;19.00;99.90;;;;;;5095367;28;20530;-71
2022/07/03 01:58:46;;;;;;;9.43;6.53;;;19.00;99.90;;;;;;5095114;28;20024;-71
2022/07/03 02:01:21;;;;;;;8.63;5.60;;;19.00;99.90;;;;;;5095391;28;20024;-71
2022/07/03 02:03:59;;;;;;;6.05;5.45;;;18.90;99.90;;;;;;5094010;28;20020;-71
2022/07/03 02:06:25;;;;;;;6.82;5.60;;;18.90;99.90;;;;;;5095261;28;20118;-71
2022/07/03 02:09:02;;;;;;;7.75;5.43;;;18.90;99.90;;;;;;5094761;28;20034;-71
2022/07/03 02:11:35;;;;;;;7.75;5.93;;;18.90;99.90;;;;;;5094714;28;20020;-71
2022/07/03 02:14:13;;;;;;;;;;;18.90;99.90;;;;;;5093807;28;20026;-71
2022/07/03 02:16:54;;;;;;;6.35;5.38;;;18.90;99.90;;;;;;5093262;28;19910;-71
2022/07/03 02:19:28;;;;;;;7.70;5.82;;;18.90;99.90;;;;;;5094255;28;20036;-71
2022/07/03 02:21:56;;;;;;;9.50;5.68;;;18.90;99.90;;;;;;5094600;28;20174;-71
2022/07/03 02:24:26;;;;;;;6.65;5.88;;;18.90;99.90;;;;;;5094676;28;20067;-71
2022/07/03 02:26:54;;;;;;;9.82;6.18;;;18.80;99.90;;;;;;5094918;28;20032;-71
2022/07/03 02:29:25;;;;;;;6.47;5.85;;;18.80;99.90;;;;;;5094811;28;20017;-71
2022/07/03 02:32:02;;;;;;;6.97;6.27;;;18.80;99.90;;;;;;5094789;28;20031;-73
2022/07/03 02:34:29;;;;;;;6.70;6.10;;;18.70;99.90;;;;;;5094665;28;20380;-71
2022/07/03 02:37:09;;;;;;;8.07;6.07;;;18.80;99.90;;;;;;5094282;28;20028;-71
2022/07/03 02:39:51;;;;;;;10.25;6.50;;;18.70;99.90;;;;;;5094514;28;20095;-73
2022/07/03 02:42:28;;;;;;;6.47;5.82;;;18.70;99.90;;;;;;5081247;28;20104;-73
2022/07/03 02:44:56;;;;;;;11.07;6.88;;;18.70;99.90;;;;;;5080149;28;20020;-73
2022/07/03 02:47:24;;;;;;;7.28;6.13;;;18.60;99.90;;;;;;5094042;28;20392;-73
2022/07/03 02:50:08;;;;;;;7.45;6.75;;;18.50;99.90;;;;;;5094261;28;20028;-73
2022/07/03 02:52:44;;;;;;;6.60;6.00;;;18.60;99.90;;;;;;5094524;28;20028;-72
2022/07/03 02:55:38;;;;;;;6.25;5.65;;;18.50;99.90;;;;;;5093656;28;20059;-72
2022/07/03 02:58:28;;;;;;;7.72;6.60;;;18.50;99.90;;;;;;5094328;28;20109;-72
2022/07/03 03:01:12;;;;;;;8.80;6.63;;;18.50;99.90;;;;;;5094145;28;20048;-71
2022/07/03 03:03:45;;;;;;;7.22;6.30;;;18.40;99.90;;;;;;5094148;28;20060;-72
2022/07/03 03:06:14;;;;;;;9.98;6.00;;;18.40;99.90;;;;;;5093723;28;20031;-72
2022/07/03 03:08:48;;;;;;;6.47;5.43;;;18.40;99.90;;;;;;5093628;28;20039;-73
2022/07/03 03:11:19;;;;;;;7.70;5.97;;;18.30;99.90;;;;;;5093969;28;20024;-72
2022/07/03 03:13:50;;;;;;;7.32;6.32;;;18.30;99.90;;;;;;5093804;28;20055;-73
2022/07/03 03:16:16;;;;;;;6.45;5.85;;;18.30;99.90;;;;;;5093894;28;20020;-73
2022/07/03 03:18:42;;;;;;;8.73;6.10;;;18.30;99.90;;;;;;5093194;28;20028;-72
2022/07/03 03:21:19;;;;;;;8.48;6.43;;;18.30;99.90;;;;;;5093532;28;20059;-72
2022/07/03 03:23:48;;;;;;;5.85;5.32;;;18.20;99.90;;;;;;5092835;28;20031;-72
2022/07/03 03:26:16;;;;;;;6.28;5.57;;;18.20;99.90;;;;;;5093484;28;20028;-72
2022/07/03 03:28:42;;;;;;;9.23;6.10;;;18.20;99.90;;;;;;5093735;28;20032;-72
2022/07/03 03:31:09;;;;;;;7.00;6.30;;;18.20;99.90;;;;;;5093505;28;20031;-72
2022/07/03 03:33:45;;;;;;;7.50;5.90;;;18.10;99.90;;;;;;5093516;28;20028;-72
2022/07/03 03:36:13;;;;;;;8.63;5.65;;;18.10;99.90;;;;;;5093491;28;20032;-72
2022/07/03 03:38:40;;;;;;;6.88;5.15;;;18.10;99.90;;;;;;5093429;28;20560;-71
2022/07/03 03:41:07;;;;;;;6.93;4.97;;;18.10;99.90;;;;;;5093209;28;20119;-72
2022/07/03 03:43:34;;;;;;;6.88;6.15;;;18.10;99.90;;;;;;5093465;28;20062;-72
2022/07/03 03:46:00;;;;;;;6.35;5.40;;;18.00;99.90;;;;;;5092242;28;20028;-72
2022/07/03 03:48:31;;;;;;;11.18;5.75;;;18.00;99.90;;;;;;5092668;28;20036;-72
2022/07/03 03:50:57;;;;;;;7.20;5.50;;;18.10;99.90;;;;;;5093270;28;20020;-72
2022/07/03 03:53:25;;;;;;;9.20;5.78;;;18.00;99.90;;;;;;5093180;28;20024;-72
2022/07/03 03:56:09;;;;;;;7.00;6.15;;;18.00;99.90;;;;;;5092691;28;20032;-72
2022/07/03 03:58:38;;;;;;;7.57;6.80;;;18.00;99.90;;;;;;5093128;28;20480;-72
2022/07/03 04:01:05;;;;;;;7.85;6.53;;;18.00;99.90;;;;;;5092751;28;20077;-72
2022/07/03 04:03:32;;;;;;;6.95;5.65;;;18.00;99.90;;;;;;5092178;28;20045;-72
2022/07/03 04:05:58;;;;;;;6.80;5.32;;;18.00;99.90;;;;;;5092439;28;20032;-72
2022/07/03 04:08:25;;;;;;;5.47;4.97;;;18.00;99.90;;;;;;5092411;28;20065;-72
2022/07/03 04:10:51;;;;;;;6.95;5.30;;;18.00;99.90;;;;;;5092744;28;20024;-71
2022/07/03 04:13:20;;;;;;;6.95;5.00;;;17.90;99.90;;;;;;5093115;28;20065;-71
2022/07/03 04:15:48;;;;;;;8.07;5.70;;;17.90;99.90;;;;;;5093043;28;20361;-72
2022/07/03 04:18:14;;;;;;;6.75;4.88;;;18.00;99.90;;;;;;5083561;28;20476;-72
2022/07/03 04:20:40;;;;;;;5.65;5.15;;;17.90;99.90;;;;;;5078986;28;20117;-72
2022/07/03 04:23:05;;;;;;;5.45;5.05;;;17.90;99.90;;;;;;5072488;28;20035;-71
2022/07/03 04:25:31;;;;;;;7.40;5.25;;;17.90;99.90;;;;;;5072643;28;20033;-72
2022/07/03 04:27:57;;;;;;;4.63;4.20;;;17.90;99.90;;;;;;5072579;28;20210;-72
2022/07/03 04:30:23;;;;;;;7.05;4.20;;;17.90;99.90;;;;;;5072791;28;20017;-72
2022/07/03 04:32:49;;;;;;;9.20;4.63;;;17.90;99.90;;;;;;5084381;28;20442;-72
2022/07/03 04:35:15;;;;;;;6.70;4.38;;;17.90;99.90;;;;;;5093552;28;20024;-71
2022/07/03 04:37:42;;;;;;;4.82;3.55;;;17.90;99.90;;;;;;5096940;28;20396;-72
2022/07/03 04:40:08;;;;;;;5.45;4.45;;;17.90;99.90;;;;;;5096708;28;20074;-71
2022/07/03 04:42:34;;;;;;;7.20;4.50;;;17.90;99.90;;;;;;5096637;28;20080;-72
2022/07/03 04:45:01;;;;;;;7.05;4.40;;;17.90;99.90;;;;;;5095372;28;20016;-71
2022/07/03 04:47:26;;;;;;;5.60;5.03;;;17.90;99.90;;;;;;5096284;28;20028;-71
2022/07/03 04:49:52;;;;;;;9.43;5.10;;;17.80;99.90;;;;;;5096697;28;20101;-72
2022/07/03 04:52:18;;;;;;;8.05;4.80;;;17.80;99.90;;;;;;5096367;28;20059;-72
2022/07/03 04:54:44;;;;;;;7.10;5.50;;;17.90;99.90;;;;;;5096471;28;20468;-72
2022/07/03 04:57:10;;;;;;;6.68;4.60;;;17.90;99.90;;;;;;5088151;28;20029;-72
2022/07/03 04:59:35;;;;;;;4.95;4.18;;;17.90;99.90;;;;;;5076427;28;20017;-72
2022/07/03 05:02:01;;;;;;;6.50;5.10;;;17.90;99.90;;;;;;5092735;28;20464;-72
2022/07/03 05:04:27;;;;;;;8.27;4.90;;;17.90;99.90;;;;;;5096529;28;20031;-71
2022/07/03 05:06:52;;;;;;;7.93;4.80;;;18.00;99.90;;;;;;5091501;28;20032;-72
2022/07/03 05:09:18;;;;;;;5.13;4.32;;;18.00;99.90;;;;;;5096048;28;20027;-71
2022/07/03 05:11:45;;;;;;;7.80;4.97;;;18.10;99.90;;;;;;5096129;28;20024;-71
2022/07/03 05:14:10;;;;;;;7.28;5.00;;;18.10;99.90;;;;;;5094896;28;20522;-72
2022/07/03 05:16:36;;;;;;;5.70;4.75;;;18.10;99.90;;;;;;5095835;28;20098;-71
2022/07/03 05:19:02;;;;;;;6.85;4.80;;;18.20;99.90;;;;;;5095681;28;20028;-71
2022/07/03 05:21:28;;;;;;;6.50;5.43;;;18.20;99.90;;;;;;5095904;28;20027;-71
2022/07/03 05:23:53;;;;;;;6.68;4.63;;;18.30;99.90;;;;;;5095386;28;20020;-71
2022/07/03 05:26:19;;;;;;;6.93;5.40;;;18.10;99.90;;;;;;5095465;28;20060;-70
2022/07/03 05:28:45;;;;;;;11.95;5.15;;;18.20;99.90;;;;;;5094837;28;20074;-72
2022/07/03 05:31:11;;;;;;;8.20;4.68;;;18.20;99.90;;;;;;5095598;28;20468;-71
2022/07/03 05:33:37;;;;;;;6.80;5.07;;;18.20;99.90;;;;;;5095734;28;20024;-71
2022/07/03 05:36:04;;;;;;;8.30;4.40;;;18.30;99.90;;;;;;5095873;28;20526;-71
2022/07/03 05:41:15;;;;;;;9.10;5.30;;;18.30;99.90;;;;;;5095548;28;20043;-71
2022/07/03 05:43:41;;;;;;;7.25;5.20;;;18.40;99.90;;;;;;5076046;28;20028;-72
2022/07/03 05:46:07;;;;;;;5.57;4.47;;;18.40;99.90;;;;;;5094912;28;20036;-71
2022/07/03 05:48:33;;;;;;;5.65;3.53;;;18.40;99.90;;;;;;5094574;28;20063;-72
2022/07/03 05:50:58;;;;;;;7.28;3.90;;;18.30;99.90;;;;;;5092147;28;20027;-71
2022/07/03 05:53:24;;;;;;;10.27;4.47;;;18.30;99.90;;;;;;5095269;28;20025;-72
2022/07/03 05:55:50;;;;;;;10.32;4.05;;;18.30;99.90;;;;;;5094954;28;20404;-72
2022/07/03 05:58:15;;;;;;;7.55;4.35;;;18.30;99.90;;;;;;5094634;28;20484;-72
2022/07/03 06:00:42;;;;;;;5.60;3.85;;;18.30;99.90;;;;;;5094449;28;20057;-71
2022/07/03 06:03:08;;;;;;;7.30;4.10;;;18.40;99.90;;;;;;5095044;28;20073;-71
2022/07/03 06:05:34;;;;;;;5.50;4.20;;;18.40;99.90;;;;;;5095192;28;20020;-72
2022/07/03 06:08:00;;;;;;;6.85;4.38;;;18.40;99.90;;;;;;5094836;28;20035;-72
2022/07/03 06:10:27;;;;;;;8.07;4.63;;;18.30;99.90;;;;;;5094952;28;20038;-72
2022/07/03 06:12:53;;;;;;;7.00;3.83;;;18.40;99.90;;;;;;5094691;28;20024;-71
2022/07/03 06:15:18;;;;;;;8.57;3.85;;;18.30;99.90;;;;;;5094778;28;20027;-71
2022/07/03 06:17:44;;;;;;;8.88;3.83;;;18.30;99.90;;;;;;5094918;28;20463;-72
2022/07/03 06:20:11;;;;;;;5.38;3.53;;;18.40;99.90;;;;;;5094896;28;20016;-72
2022/07/03 06:22:37;;;;;;;5.35;3.40;;;18.50;99.90;;;;;;5094596;28;20092;-72
2022/07/03 06:25:03;;;;;;;6.22;3.70;;;18.60;99.90;;;;;;5094174;28;20012;-73
2022/07/03 06:27:29;;;;;;;4.55;3.55;;;18.60;99.90;;;;;;5094462;28;20036;-72
2022/07/03 06:29:54;;;;;;;6.38;3.47;;;18.60;99.90;;;;;;5094379;28;20027;-72
2022/07/03 06:32:20;;;;;;;6.75;3.50;;;18.70;99.90;;;;;;5094367;28;20408;-72
2022/07/03 06:34:47;;;;;;;10.15;3.30;;;18.80;99.90;;;;;;5094585;28;20137;-73
2022/07/03 06:37:12;;;;;;;6.57;3.03;;;18.80;99.90;;;;;;5093875;28;20100;-73
2022/07/03 06:39:38;;;;;;;6.82;2.75;;;18.90;99.90;;;;;;5094205;28;20556;-71
2022/07/03 06:42:05;;;;;;;7.03;3.88;;;19.00;99.90;;;;;;5093645;28;20469;-72
2022/07/03 06:44:30;;;;;;;5.57;3.33;;;19.00;99.90;;;;;;5094519;28;20051;-73
2022/07/03 06:46:56;;;;;;;6.35;3.00;;;19.10;99.90;;;;;;5093171;28;20059;-73
2022/07/03 06:49:22;;;;;;;3.50;2.88;;;19.30;99.90;;;;;;5094371;28;20099;-73
2022/07/03 06:51:48;;;;;;;6.30;3.22;;;19.40;99.90;;;;;;5093371;28;20024;-73
2022/07/03 06:54:14;;;;;;;5.88;3.05;;;19.50;99.90;;;;;;5073729;28;20031;-73
2022/07/03 06:56:40;;;;;;;6.53;3.30;;;19.70;99.90;;;;;;5073057;28;20064;-73
2022/07/03 06:59:05;;;;;;;4.70;2.92;;;19.90;99.90;;;;;;5077705;28;20468;-73
2022/07/03 07:01:31;;;;;;;6.82;3.60;;;20.10;99.90;;;;;;5094147;28;20036;-73
2022/07/03 07:03:57;;;;;;;3.78;2.67;;;20.30;99.90;;;;;;5094068;28;20469;-73
2022/07/03 07:06:23;;;;;;;7.82;3.15;;;20.30;99.90;;;;;;5093958;28;20026;-73
2022/07/03 07:08:48;;;;;;;7.18;2.92;;;20.50;99.90;;;;;;5093789;28;20036;-73
2022/07/03 07:11:14;;;;;;;5.93;3.08;;;20.70;99.90;;;;;;5093236;28;20031;-73
2022/07/03 07:13:40;;;;;;;7.88;3.45;;;20.90;99.90;;;;;;5093582;28;20050;-73
2022/07/03 07:16:06;;;;;;;4.93;3.25;;;21.10;99.90;;;;;;5093615;28;20149;-73
2022/07/03 07:18:32;;;;;;;4.93;2.70;;;21.20;99.90;;;;;;5092204;28;20031;-73
2022/07/03 07:20:58;;;;;;;4.88;3.05;;;21.40;99.90;;;;;;5092146;28;20028;-73
2022/07/03 07:23:23;;;;;;;5.75;2.83;;;21.50;99.90;;;;;;5093170;28;20027;-73
2022/07/03 07:25:49;;;;;;;5.72;2.45;;;21.60;99.90;;;;;;5093336;28;20154;-73
2022/07/03 07:28:15;;;;;;;6.32;2.47;;;21.50;99.90;;;;;;5093761;28;20051;-72
2022/07/03 07:30:41;;;;;;;6.20;2.72;;;21.70;99.90;;;;;;5093632;28;20469;-73
2022/07/03 07:33:07;;;;;;;7.38;2.92;;;21.70;99.90;;;;;;5093647;28;20146;-73
2022/07/03 07:35:33;;;;;;;2.75;2.47;;;21.60;99.90;;;;;;5093038;28;20085;-72
2022/07/03 07:37:59;;;;;;;4.32;2.95;;;21.70;99.90;;;;;;5092805;28;20015;-73
2022/07/03 07:40:25;;;;;;;3.83;2.35;;;21.80;99.90;;;;;;5092648;28;20051;-72
2022/07/03 07:42:50;;;;;;;4.28;2.63;;;22.00;99.90;;;;;;5093666;28;20024;-73
2022/07/03 07:45:16;;;;;;;8.85;2.90;;;22.00;99.90;;;;;;5093101;28;20050;-73
2022/07/03 07:47:42;;;;;;;3.53;2.17;;;22.00;99.90;;;;;;5093196;28;20039;-72
2022/07/03 07:50:08;;;;;;;3.92;2.10;;;22.10;99.90;;;;;;5092704;28;20028;-74
2022/07/03 07:52:34;;;;;;;5.35;1.80;;;22.20;99.90;;;;;;5093036;28;20534;-73
2022/07/03 07:55:00;;;;;;;2.30;1.23;;;22.30;99.90;;;;;;5092231;28;20031;-73
2022/07/03 07:57:33;;;;;;;3.60;1.95;;;22.30;99.90;;;;;;5087378;28;20020;-73
2022/07/03 07:59:59;;;;;;;1.77;1.45;;;22.40;99.90;;;;;;5093197;28;20069;-73
2022/07/03 08:07:52;;;;;;;2.08;1.40;;;22.80;99.90;;;;;;5090683;28;20069;-75
2022/07/03 08:10:18;;;;;;;1.58;1.35;;;22.90;99.90;;;;;;5090773;28;20024;-74
2022/07/03 08:12:44;;;;;;;4.22;1.45;;;23.00;99.90;;;;;;5092599;28;20073;-74
2022/07/03 08:15:10;;;;;;;2.33;1.40;;;23.00;99.90;;;;;;5090818;28;20072;-75
2022/07/03 08:17:35;;;;;;;3.50;1.40;;;23.20;99.90;;;;;;5092362;28;20024;-74
2022/07/03 08:20:01;;;;;;;3.85;1.20;;;23.20;99.90;;;;;;5091162;28;20063;-77
2022/07/03 08:22:26;;;;;;;2.75;1.45;;;23.30;99.90;;;;;;5090516;28;20507;-75
2022/07/03 08:24:52;;;;;;;6.25;1.92;;;23.50;99.90;;;;;;5092284;28;20045;-74
2022/07/03 08:27:18;;;;;;;4.75;1.90;;;23.60;99.90;;;;;;5092084;28;20044;-75
2022/07/03 08:29:44;;;;;;;3.13;1.60;;;23.70;99.90;;;;;;5091877;28;20469;-74
2022/07/03 08:32:10;;;;;;;3.83;2.28;;;23.80;99.90;;;;;;5091981;28;20035;-75
2022/07/03 08:34:35;;;;;;;3.47;1.80;;;24.00;99.90;;;;;;5091797;28;20008;-75
2022/07/03 08:37:01;;;;;;;4.00;2.00;;;24.10;99.90;;;;;;5090810;28;20533;-73
2022/07/03 08:39:27;;;;;;;3.03;1.58;;;24.10;99.90;;;;;;5090962;28;20520;-74
2022/07/03 08:41:53;;;;;;;4.20;1.30;;;24.10;99.90;;;;;;5091540;28;20020;-76
2022/07/03 08:44:21;;;;;;;2.28;1.27;;;24.20;99.90;;;;;;5088454;28;20020;-75
2022/07/03 08:46:48;;;;;;;3.80;1.45;;;24.40;99.90;;;;;;5092116;28;20031;-74
2022/07/03 08:49:16;;;;;;;2.53;1.20;;;24.40;99.80;;;;;;5091254;28;20495;-74
2022/07/03 08:51:42;;;;;;;4.47;1.40;;;24.50;99.80;;;;;;5088436;28;20012;-73
2022/07/03 08:54:08;;;;;;;5.63;1.38;;;24.60;99.90;;;;;;5091539;28;20024;-75
2022/07/03 08:56:35;;;;;;;2.95;1.25;;;24.70;99.80;;;;;;5091334;28;20085;-74
2022/07/03 08:59:04;;;;;;;2.20;1.20;;;24.80;99.30;;;;;;5088378;28;20042;-75
2022/07/03 09:01:31;;;;;;;1.95;1.10;;;24.50;99.40;;;;;;5091566;28;20464;-74
2022/07/03 09:03:59;;;;;;;3.25;1.02;;;24.60;99.20;;;;;;5091529;28;20062;-75
2022/07/03 09:06:24;;;;;;;1.48;1.00;;;24.80;99.10;;;;;;5092391;28;20017;-74
2022/07/03 09:08:53;;;;;;;2.20;1.27;;;24.80;98.70;;;;;;5090099;28;20062;-74
2022/07/03 09:11:19;;;;;;;6.13;1.27;;;24.80;98.30;;;;;;5091265;28;20477;-75
2022/07/03 09:13:44;;;;;;;4.10;1.20;;;24.90;98.60;;;;;;5090702;28;20024;-76
2022/07/03 09:16:16;;;;;;;1.77;0.98;;;25.10;98.60;;;;;;5094384;28;20029;-75
2022/07/03 09:18:44;;;;;;;3.20;0.82;;;25.30;98.70;;;;;;5096569;28;20075;-75
2022/07/03 09:21:10;;;;;;;2.22;1.23;;;25.40;99.00;;;;;;5091249;28;20021;-74
2022/07/03 09:23:38;;;;;;;2.15;0.80;;;25.50;99.30;;;;;;5094032;28;20051;-75
2022/07/03 09:26:05;;;;;;;2.05;0.75;;;25.60;98.30;;;;;;5095706;28;20035;-74
2022/07/03 09:28:46;;;;;;;4.05;1.02;;;25.70;97.70;;;;;;5094891;28;20059;-75
2022/07/03 09:31:13;;;;;;;2.17;1.30;;;25.80;98.10;;;;;;5092458;28;20048;-74
2022/07/03 09:34:03;;;;;;;2.95;1.20;;;25.90;97.20;;;;;;5094956;28;20020;-74
2022/07/03 09:36:50;;;;;;;2.05;1.10;;;25.90;97.00;;;;;;5095244;28;20020;-75
2022/07/03 09:39:15;;;;;;;1.40;0.80;;;25.80;97.30;;;;;;5092668;28;20127;-75
2022/07/03 09:42:19;;;;;;;2.95;1.05;;;26.00;97.50;;;;;;5094520;28;20098;-74
2022/07/03 09:44:46;;;;;;;1.80;1.10;;;26.30;97.30;;;;;;5032182;28;20467;-75
2022/07/03 09:47:16;;;;;;;3.00;1.40;;;26.40;96.90;;;;;;5032438;28;20115;-75
2022/07/03 09:49:54;;;;;;;3.83;1.40;;;26.50;96.50;;;;;;5057686;28;20480;-73
2022/07/03 09:52:41;;;;;;;3.88;0.90;;;26.30;97.30;;;;;;5094634;28;20012;-74
2022/07/03 09:55:10;;;;;;;1.08;0.98;;;26.30;97.10;;;;;;5092934;28;20028;-75
2022/07/03 09:57:55;;;;;;;2.38;1.05;;;26.30;95.60;;;;;;5092514;28;20028;-76
2022/07/03 10:00:26;;;;;;;1.20;1.10;;;26.30;96.20;;;;;;5082735;28;20040;-76
2022/07/03 10:02:58;;;;;;;3.92;1.50;;;26.40;96.30;;;;;;5095080;28;20454;-76
2022/07/03 10:05:25;;;;;;;2.55;1.00;;;26.50;97.10;;;;;;5094235;28;20042;-76
2022/07/03 10:08:04;;;;;;;3.15;1.10;;;26.50;95.70;;;;;;5093896;28;20036;-76
2022/07/03 10:10:32;;;;;;;1.75;0.70;;;26.60;95.40;;;;;;5093562;28;20060;-76
2022/07/03 10:12:59;;;;;;;1.85;0.88;;;26.70;95.70;;;;;;5094900;28;20128;-77
2022/07/03 10:15:26;;;;;;;2.90;0.90;;;26.70;95.30;;;;;;5094415;28;20020;-76
2022/07/03 10:17:56;;;;;;;3.33;0.90;;;26.70;94.70;;;;;;5094041;28;20103;-79
2022/07/03 10:20:43;;;;;;;2.50;1.10;;;27.00;96.20;;;;;;5093805;28;20032;-75
2022/07/03 10:23:09;;;;;;;1.85;0.98;;;27.10;95.70;;;;;;5093233;28;20024;-77
2022/07/03 10:25:35;;;;;;;1.50;0.80;;;26.70;94.70;;;;;;5093995;28;20020;-76
2022/07/03 10:28:01;;;;;;;2.17;1.00;;;26.40;94.90;;;;;;5093210;28;20036;-76
2022/07/03 10:30:27;;;;;;;1.10;0.70;;;26.30;95.10;;;;;;5092092;28;20028;-76
2022/07/03 10:32:55;;;;;;;2.40;0.80;;;26.50;95.40;;;;;;5093930;28;20032;-76
2022/07/03 10:35:36;;;;;;;2.38;0.70;;;26.40;94.80;;;;;;5093598;28;20027;-77
2022/07/03 10:38:01;;;;;;;1.15;0.70;;;26.50;94.80;;;;;;5094046;28;20423;-75
2022/07/03 10:46:21;;;;;;;3.40;1.13;;;26.80;94.50;;;;;;5093656;28;20035;-75
2022/07/03 10:49:08;;;;;;;2.33;0.50;;;26.60;95.50;;;;;;5092937;28;20028;-76
2022/07/03 10:51:52;;;;;;;1.10;0.82;;;26.40;94.20;;;;;;5092579;28;20034;-73
2022/07/03 10:54:23;;;;;;;0.60;0.50;;;26.20;94.80;;;;;;5091139;28;20028;-77
2022/07/03 10:57:18;;;;;;;2.15;0.70;;;26.00;95.70;;;;;;5093751;28;20095;-78
2022/07/03 10:59:47;;;;;;;2.25;0.70;;;25.70;95.20;;;;;;5074446;28;20043;-75
2022/07/03 11:02:36;;;;;;;3.25;1.05;;;25.60;95.90;;;;;;5092799;28;20031;-77
2022/07/03 11:05:02;;;;;;;2.38;1.27;;;25.70;95.80;;;;;;5092952;28;20097;-77
2022/07/03 11:08:07;;;;;;;2.05;0.80;;;26.30;95.50;;;;;;5092806;28;20079;-77
2022/07/03 11:10:34;;;;;;;0.80;0.80;;;26.70;94.80;;;;;;5080067;28;20036;-76
2022/07/03 11:13:05;;;;;;;1.67;1.10;;;26.70;94.10;;;;;;5093548;28;20016;-77
2022/07/03 11:15:31;;;;;;;1.95;1.02;;;26.70;94.00;;;;;;5092872;28;20499;-77
2022/07/03 11:18:08;;;;;;;2.45;0.90;;;26.40;94.50;;;;;;5092381;28;20016;-77
2022/07/03 11:20:46;;;;;;;1.08;0.73;;;26.40;94.90;;;;;;5091823;28;20043;-77
2022/07/03 11:23:27;;;;;;;2.85;0.70;;;26.70;95.40;;;;;;5093281;28;20108;-76
2022/07/03 11:25:57;;;;;;;3.78;0.90;;;26.70;94.20;;;;;;5091474;28;20020;-77
2022/07/03 11:28:56;;;;;;;2.30;1.05;;;26.60;94.20;;;;;;5091457;28;20051;-77
2022/07/03 11:31:23;;;;;;;1.63;0.73;;;26.50;94.70;;;;;;5088415;28;20380;-76
2022/07/03 11:33:52;;;;;;;2.33;0.80;;;26.50;95.00;;;;;;5094920;28;20016;-78
2022/07/03 11:36:17;;;;;;;2.13;0.95;;;26.30;95.00;;;;;;5092434;28;20056;-79
2022/07/03 11:38:45;;;;;;;1.55;0.60;;;26.10;95.00;;;;;;5092240;28;20044;-77
2022/07/03 11:41:13;;;;;;;1.05;0.60;;;26.20;95.40;;;;;;5092053;28;20573;-74
2022/07/03 11:43:50;;;;;;;3.80;0.70;;;26.20;94.60;;;;;;5092939;28;20020;-74
2022/07/03 11:46:20;;;;;;;2.17;0.65;;;26.20;94.60;;;;;;5092343;28;20476;-74
2022/07/03 11:48:45;;;;;;;1.83;0.60;;;26.60;94.50;;;;;;5093433;28;20040;-75
2022/07/03 11:51:11;;;;;;;1.95;0.88;;;26.80;95.00;;;;;;5091206;28;20496;-74
2022/07/03 11:53:38;;;;;;;5.78;1.55;;;27.00;95.90;;;;;;5091964;28;20070;-73
2022/07/03 11:56:12;;;;;;;2.90;0.90;;;26.50;95.70;;;;;;5091585;28;20024;-74
2022/07/03 11:58:47;;;;;;;4.28;1.00;;;26.30;95.70;;;;;;5092244;28;20032;-74
2022/07/03 12:01:28;;;;;;;1.75;0.90;;;26.00;96.50;;;;;;5091491;28;20028;-74
2022/07/03 12:04:12;;;;;;;3.95;1.25;;;26.20;96.50;;;;;;5092219;28;20024;-73
2022/07/03 12:06:49;;;;;;;1.85;0.80;;;26.40;95.90;;;;;;5092616;28;20016;-74
2022/07/03 12:09:24;;;;;;;4.25;1.15;;;26.30;95.20;;;;;;5091380;28;20024;-75
2022/07/03 12:12:07;;;;;;;1.60;0.82;;;26.40;94.40;;;;;;5091729;28;20486;-74
2022/07/03 12:14:40;;;;;;;2.08;0.75;;;26.70;95.20;;;;;;5091190;28;20024;-74
2022/07/03 12:17:09;;;;;;;3.40;0.70;;;26.80;94.20;;;;;;5091269;28;20021;-73
2022/07/03 12:19:35;;;;;;;3.10;0.70;;;26.40;94.00;;;;;;5091689;28;20111;-74
2022/07/03 12:22:01;;;;;;;2.25;0.77;;;26.30;94.20;;;;;;5091948;28;20062;-74
2022/07/03 12:24:26;;;;;;;2.05;0.88;;;26.30;94.60;;;;;;5090466;28;20041;-74
2022/07/03 12:26:52;;;;;;;1.73;0.80;;;26.10;95.50;;;;;;5090995;28;20027;-74
2022/07/03 12:29:18;;;;;;;3.58;1.00;;;26.10;95.40;;;;;;5092193;28;20107;-75
2022/07/03 12:31:46;;;;;;;4.32;0.65;;;26.10;95.40;;;;;;5091855;28;20048;-75
2022/07/03 12:34:13;;;;;;;4.50;1.02;;;26.30;95.40;;;;;;5090807;28;20028;-74
2022/07/03 12:36:40;;;;;;;10.60;1.65;;;26.60;95.30;;;;;;5091683;28;20073;-75
2022/07/03 12:39:06;;;;;;;3.00;0.60;;;27.10;94.90;;;;;;5090810;28;20107;-74
2022/07/03 12:41:32;;;;;;;2.75;0.88;;;27.20;94.90;;;;;;5092003;28;20161;-76
2022/07/03 12:43:59;;;;;;;2.53;1.23;;;26.70;94.60;;;;;;5091749;28;20013;-74
2022/07/03 12:46:36;;;;;;;3.10;0.88;;;26.30;95.00;;;;;;5094125;28;20111;-74
2022/07/03 12:49:09;;;;;;;1.27;0.70;;;26.10;95.60;;;;;;5102386;28;20553;-74
2022/07/03 12:51:39;;;;;;;3.10;0.70;;;26.10;95.40;;;;;;5091645;28;20107;-74
2022/07/03 12:54:27;;;;;;;1.25;0.90;;;26.00;95.90;;;;;;5091683;28;20177;-75
2022/07/03 13:00:06;;;;;;;3.00;0.80;;;26.10;94.80;;;;;;5095971;28;20408;-74
2022/07/03 13:02:33;;;;;;;3.88;0.70;;;25.80;94.30;;;;;;5094442;28;20031;-74
2022/07/03 13:05:00;;;;;;;4.60;0.80;;;25.50;94.30;;;;;;5094645;28;20070;-73
2022/07/03 13:07:30;;;;;;;2.33;0.80;;;25.40;94.70;;;;;;5095504;28;20040;-77
2022/07/03 13:10:00;;;;;;;1.10;0.52;;;25.50;94.70;;;;;;5094922;28;20465;-77
2022/07/03 13:12:26;;;;;;;3.30;0.52;;;25.60;95.00;;;;;;5095167;28;20078;-77
2022/07/03 13:14:58;;;;;;;2.00;0.50;;;25.40;94.80;;;;;;5094276;28;20036;-76
2022/07/03 13:17:53;;;;;;;1.63;1.00;;;25.30;94.80;;;;;;5105393;28;20548;-76
2022/07/03 13:20:19;;;;;;;2.17;0.68;;;25.90;94.70;;;;;;5103839;28;20099;-76